This is the latest recevied weather packets stored in our database for station/object F8KGK-5. If no packets are shown the sender has not sent any weather packets the latest 10 day(s).
| Time | Temp. | Humidity | Pressure | Rain* | Wind** | Luminosity | Snow |
|---|---|---|---|---|---|---|---|
| 1787609250 | 18.33° C | 56% | 1004.7 hPa | 0 mm | - | - | - |
| 1787607448 | 18.89° C | 55% | 1004.5 hPa | 0 mm | - | - | - |
| 1787605648 | 19.44° C | 54% | 1004.7 hPa | 0 mm | - | - | - |
| 1787603848 | 19.44° C | 53% | 1005 hPa | 0 mm | - | - | - |
| 1787602050 | 20° C | 51% | 1005 hPa | 0 mm | - | - | - |
| 1787600250 | 20.56° C | 50% | 1005.1 hPa | 0 mm | - | - | - |
| 1787598450 | 21.67° C | 48% | 1004.9 hPa | 0 mm | - | - | - |
| 1787596648 | 22.22° C | 45% | 1004.6 hPa | 0 mm | - | - | - |
| 1787594848 | 23.33° C | 43% | 1004.7 hPa | 0 mm | - | - | - |
| 1787593049 | 23.89° C | 41% | 1004.8 hPa | 0 mm | - | - | - |
| 1787591249 | 24.44° C | 41% | 1005 hPa | 0 mm | - | - | - |
| 1787589448 | 25° C | 39% | 1005.2 hPa | 0 mm | - | - | - |
| 1787587648 | 25.56° C | 38% | 1005.6 hPa | 0 mm | - | - | - |
| 1787585849 | 25.56° C | 37% | 1006 hPa | 0 mm | - | - | - |
| 1787584049 | 26.11° C | 38% | 1006.5 hPa | 0 mm | - | - | - |
| 1787582248 | 28.89° C | 31% | 1006.6 hPa | 0 mm | - | - | - |
| 1787580449 | 30.56° C | 31% | 1007.1 hPa | 0 mm | - | - | - |
| 1787578650 | 29.44° C | 32% | 1007.8 hPa | 0 mm | - | - | - |
| 1787576848 | 27.78° C | 35% | 1008.1 hPa | 0 mm | - | - | - |
| 1787575048 | 28.89° C | 34% | 1008.6 hPa | 0 mm | - | - | - |
| 1787573249 | 22.78° C | 42% | 1008.7 hPa | 0 mm | - | - | - |
| 1787571449 | 21.67° C | 44% | 1008.8 hPa | 0 mm | - | - | - |
| 1787569651 | 21.67° C | 46% | 1009.2 hPa | 0 mm | - | - | - |
| 1787567849 | 21.11° C | 46% | 1009.6 hPa | 0 mm | - | - | - |
| 1787566049 | 22.78° C | 43% | 1010.2 hPa | 0 mm | - | - | - |
* Rain latest hour (hover to see other rain measurements)
** Current wind speed in m/s (hover to see current wind gust speed)